Time;durP1;ratioP1;P1;durP2;ratioP2;P2;SDS_P1;SDS_P2;PMS_P1;PMS_P2;Temp;Humidity;BMP_temperature;BMP_pressure;BME280_temperature;BME280_humidity;BME280_pressure;Samples;Min_cycle;Max_cycle;Signal;HPM_P1;HPM_P2
2022/04/11 00:00:54;;;;;;;14.00;7.28;;;;;;;4.61;84.73;102106.97;5079844;28;20040;-76
2022/04/11 00:03:25;;;;;;;14.45;7.72;;;;;;;4.61;85.31;102104.38;5080193;28;20453;-74
2022/04/11 00:05:54;;;;;;;13.00;7.38;;;;;;;4.61;84.52;102101.78;5078951;28;20076;-74
2022/04/11 00:08:24;;;;;;;13.80;7.40;;;;;;;4.58;84.61;102092.09;5078530;28;20173;-75
2022/04/11 00:10:52;;;;;;;13.88;7.22;;;;;;;4.58;84.78;102089.50;5074671;28;20044;-75
2022/04/11 00:13:20;;;;;;;15.55;8.20;;;;;;;4.56;85.09;102088.53;5074785;28;20044;-74
2022/04/11 00:15:52;;;;;;;16.25;7.88;;;;;;;4.56;85.18;102085.03;5074494;28;20053;-76
2022/04/11 00:18:20;;;;;;;15.85;7.70;;;;;;;4.54;84.69;102084.03;5074311;28;20424;-75
2022/04/11 00:20:52;;;;;;;16.25;8.38;;;;;;;4.54;85.04;102076.25;5074426;28;20064;-75
2022/04/11 00:23:21;;;;;;;14.93;8.25;;;;;;;4.55;85.47;102084.13;5074074;28;20063;-74
2022/04/11 00:25:52;;;;;;;15.25;8.70;;;;;;;4.57;86.13;102069.53;5075989;28;20097;-75
2022/04/11 00:28:20;;;;;;;13.27;7.47;;;;;;;4.59;85.78;102085.19;5077981;28;20055;-75
2022/04/11 00:30:52;;;;;;;15.50;8.27;;;;;;;4.58;85.52;102076.50;5077510;28;20044;-75
2022/04/11 00:33:20;;;;;;;18.52;8.80;;;;;;;4.59;85.69;102072.22;5077755;28;20397;-76
2022/04/11 00:35:53;;;;;;;16.20;8.27;;;;;;;4.59;86.25;102069.63;5077575;28;20168;-75
2022/04/11 00:38:21;;;;;;;14.18;8.48;;;;;;;4.60;85.86;102079.19;5078085;28;20115;-75
2022/04/11 00:40:50;;;;;;;16.08;8.48;;;;;;;4.61;86.36;102083.59;5078193;28;20049;-74
2022/04/11 00:43:32;;;;;;;16.95;8.57;;;;;;;4.58;85.38;102083.41;5077430;28;20059;-75
2022/04/11 00:46:01;;;;;;;14.30;7.85;;;;;;;4.57;85.71;102074.72;5077589;28;20051;-75
2022/04/11 00:48:30;;;;;;;14.48;8.52;;;;;;;4.56;85.90;102075.53;5077416;28;20499;-75
2022/04/11 00:51:06;;;;;;;15.77;8.63;;;;;;;4.55;86.14;102073.75;5077874;28;20036;-75
2022/04/11 00:53:37;;;;;;;14.93;7.45;;;;;;;4.55;86.37;102072.84;5077286;28;20044;-75
2022/04/11 00:56:08;;;;;;;16.75;8.65;;;;;;;4.57;86.18;102071.22;5077699;28;20044;-73
2022/04/11 00:58:37;;;;;;;16.25;8.50;;;;;;;4.54;86.34;102074.53;5076839;28;20048;-73
2022/04/11 01:01:08;;;;;;;15.55;7.60;;;;;;;4.52;86.03;102075.25;5077069;28;20135;-73
2022/04/11 01:03:36;;;;;;;13.70;7.57;;;;;;;4.50;85.69;102063.88;5076439;28;20515;-74
2022/04/11 01:06:09;;;;;;;14.95;7.72;;;;;;;4.50;85.61;102069.09;5076888;28;20456;-73
2022/04/11 01:08:37;;;;;;;18.33;8.27;;;;;;;4.50;86.50;102063.88;5076992;28;20357;-74
2022/04/11 01:11:07;;;;;;;14.23;7.63;;;;;;;4.50;86.51;102057.00;5077532;28;20041;-75
2022/04/11 01:13:37;;;;;;;14.18;7.70;;;;;;;4.50;86.66;102064.78;5077343;28;20115;-76
2022/04/11 01:16:06;;;;;;;13.55;8.57;;;;;;;4.48;86.91;102065.50;5075890;28;20044;-74
2022/04/11 01:18:35;;;;;;;15.65;8.25;;;;;;;4.47;86.66;102056.81;5076867;28;20119;-74
2022/04/11 01:21:04;;;;;;;16.70;8.45;;;;;;;4.46;86.28;102051.53;5077157;28;20050;-74
2022/04/11 01:23:33;;;;;;;13.65;8.43;;;;;;;4.45;86.11;102054.94;5076535;28;20060;-74
2022/04/11 01:26:02;;;;;;;14.55;8.20;;;;;;;4.44;86.32;102053.16;5076625;28;20048;-72
2022/04/11 01:28:32;;;;;;;17.13;8.27;;;;;;;4.44;86.21;102053.16;5076321;28;20068;-74
2022/04/11 01:31:00;;;;;;;14.45;7.78;;;;;;;4.44;86.68;102054.03;5076259;28;20078;-73
2022/04/11 01:33:31;;;;;;;14.65;7.82;;;;;;;4.42;86.22;102045.28;5076147;28;20044;-73
2022/04/11 01:36:00;;;;;;;17.02;8.43;;;;;;;4.39;86.24;102046.78;5075776;28;20136;-73
2022/04/11 01:38:28;;;;;;;15.65;7.80;;;;;;;4.37;86.16;102051.00;5075487;28;20068;-73
2022/04/11 01:41:01;;;;;;;14.15;7.20;;;;;;;4.34;86.73;102043.03;5076497;28;20041;-73
2022/04/11 01:43:30;;;;;;;15.20;7.88;;;;;;;4.31;86.19;102048.06;5076039;28;20058;-73
2022/04/11 01:45:59;;;;;;;13.32;7.00;;;;;;;4.26;86.27;102040.91;5076109;28;20048;-73
2022/04/11 01:48:27;;;;;;;18.38;9.10;;;;;;;4.22;86.78;102038.94;5076298;28;20044;-75
2022/04/11 01:50:55;;;;;;;14.02;8.18;;;;;;;4.20;86.74;102043.13;5076672;28;20109;-75
2022/04/11 01:53:24;;;;;;;14.73;8.00;;;;;;;4.18;86.64;102042.16;5076421;28;20055;-75
2022/04/11 01:55:52;;;;;;;13.48;7.85;;;;;;;4.15;86.23;102033.31;5076512;28;20044;-74
2022/04/11 01:58:21;;;;;;;15.13;7.63;;;;;;;4.11;86.72;102037.44;5076728;28;20048;-76
2022/04/11 02:00:55;;;;;;;14.02;8.18;;;;;;;4.09;86.86;102038.16;5076158;28;20124;-74
2022/04/11 02:03:24;;;;;;;17.65;8.32;;;;;;;4.03;86.91;102037.81;5075982;28;20056;-75
2022/04/11 02:05:53;;;;;;;16.67;8.82;;;;;;;3.96;87.02;102033.94;5076574;28;20040;-74
2022/04/11 02:08:21;;;;;;;15.82;8.20;;;;;;;3.94;87.15;102040.75;5076341;28;20063;-76
2022/04/11 02:10:54;;;;;;;13.70;8.00;;;;;;;3.89;87.00;102044.78;5075831;28;20103;-75
2022/04/11 02:13:24;;;;;;;13.68;7.80;;;;;;;3.81;86.61;102046.91;5076092;28;20445;-75
2022/04/11 02:15:52;;;;;;;12.45;7.88;;;;;;;3.77;86.70;102051.81;5076041;28;20084;-74
2022/04/11 02:18:20;;;;;;;13.65;8.05;;;;;;;3.73;87.07;102047.25;5076008;28;20099;-75
2022/04/11 02:20:54;;;;;;;16.77;9.27;;;;;;;3.71;87.80;102043.69;5075823;28;20090;-75
2022/04/11 02:23:22;;;;;;;15.40;8.48;;;;;;;3.67;87.91;102046.88;5076376;28;20389;-75
2022/04/11 02:25:54;;;;;;;16.63;7.90;;;;;;;3.64;87.75;102044.13;5075410;28;20052;-74
2022/04/11 02:28:26;;;;;;;15.10;8.63;;;;;;;3.63;87.28;102044.91;5075756;28;20449;-73
2022/04/11 02:30:55;;;;;;;15.75;8.27;;;;;;;3.61;87.69;102042.22;5075388;28;20489;-73
2022/04/11 02:33:24;;;;;;;15.85;9.13;;;;;;;3.56;87.80;102044.53;5076246;28;20062;-73
2022/04/11 02:35:52;;;;;;;17.00;8.38;;;;;;;3.56;87.82;102046.25;5075781;28;20048;-74
2022/04/11 02:38:21;;;;;;;17.38;8.60;;;;;;;3.55;87.90;102039.25;5076351;28;20442;-73
2022/04/11 02:40:52;;;;;;;16.00;9.57;;;;;;;3.51;87.82;102040.78;5075811;28;20080;-73
2022/04/11 02:43:21;;;;;;;16.20;8.60;;;;;;;3.51;87.83;102039.88;5076368;28;20051;-75
2022/04/11 02:45:53;;;;;;;15.60;8.45;;;;;;;3.50;88.03;102043.28;5075983;28;20476;-73
2022/04/11 02:48:22;;;;;;;15.30;8.20;;;;;;;3.47;88.52;102038.81;5076590;28;20091;-73
2022/04/11 02:50:53;;;;;;;15.25;8.52;;;;;;;3.45;88.17;102040.41;5076373;28;20095;-73
2022/04/11 02:53:21;;;;;;;18.98;9.40;;;;;;;3.44;88.02;102037.72;5076484;28;20056;-74
2022/04/11 02:55:50;;;;;;;15.57;9.00;;;;;;;3.44;88.82;102041.22;5076621;28;20126;-75
2022/04/11 02:58:21;;;;;;;15.25;8.73;;;;;;;3.41;88.60;102037.53;5076858;28;20467;-73
2022/04/11 03:00:52;;;;;;;18.30;9.30;;;;;;;3.40;89.02;102036.63;5077462;28;20052;-72
2022/04/11 03:03:22;;;;;;;17.70;8.77;;;;;;;3.37;88.89;102031.25;5079780;28;20125;-74
2022/04/11 03:05:53;;;;;;;18.70;10.15;;;;;;;3.34;88.76;102031.06;5080027;28;20103;-73
2022/04/11 03:08:22;;;;;;;16.50;8.23;;;;;;;3.30;88.74;102031.69;5082832;28;20056;-73
2022/04/11 03:10:54;;;;;;;15.50;8.75;;;;;;;3.29;88.84;102032.50;5080277;28;20131;-73
2022/04/11 03:13:23;;;;;;;16.30;10.10;;;;;;;3.24;89.58;102026.13;5080198;28;20067;-75
2022/04/11 03:15:54;;;;;;;19.27;10.40;;;;;;;3.19;89.32;102022.34;5079373;28;20472;-72
2022/04/11 03:18:23;;;;;;;20.23;9.55;;;;;;;3.17;89.54;102018.78;5080042;28;20052;-75
2022/04/11 03:20:54;;;;;;;17.38;9.27;;;;;;;3.14;89.60;102021.19;5079352;28;20076;-73
2022/04/11 03:23:22;;;;;;;15.60;9.18;;;;;;;3.11;89.26;102016.72;5078450;28;20123;-73
2022/04/11 03:25:53;;;;;;;18.95;9.93;;;;;;;3.11;89.63;102015.84;5075442;28;20222;-73
2022/04/11 03:28:21;;;;;;;16.17;9.82;;;;;;;3.08;90.20;102016.53;5075152;28;20048;-73
2022/04/11 03:30:52;;;;;;;18.60;10.57;;;;;;;3.04;89.87;102016.25;5074572;28;20117;-74
2022/04/11 03:33:24;;;;;;;19.55;10.68;;;;;;;3.04;90.77;102013.66;5074249;28;20090;-74
2022/04/11 03:35:52;;;;;;;17.20;9.85;;;;;;;3.00;90.40;102012.56;5074348;28;20072;-75
2022/04/11 03:38:21;;;;;;;18.17;10.07;;;;;;;2.98;91.11;102006.41;5074451;28;20053;-74
2022/04/11 03:40:52;;;;;;;16.00;9.50;;;;;;;2.97;90.94;102011.50;5074369;28;20056;-73
2022/04/11 03:43:21;;;;;;;17.55;10.38;;;;;;;2.97;91.14;102011.50;5074246;28;20044;-73
2022/04/11 03:45:51;;;;;;;18.95;11.27;;;;;;;2.97;91.68;102012.38;5073660;28;20432;-73
2022/04/11 03:48:23;;;;;;;15.45;10.32;;;;;;;2.93;91.32;102010.41;5074283;28;20556;-73
2022/04/11 03:50:55;;;;;;;21.73;10.73;;;;;;;2.89;91.28;102004.13;5073979;28;20076;-73
2022/04/11 03:53:24;;;;;;;20.05;10.48;;;;;;;2.91;92.32;102006.81;5073973;28;20070;-73
2022/04/11 03:55:55;;;;;;;20.92;11.38;;;;;;;2.89;91.61;102009.31;5074078;28;20055;-76
2022/04/11 03:58:23;;;;;;;23.52;12.02;;;;;;;2.90;92.02;102008.50;5075077;28;20044;-75
2022/04/11 04:00:51;;;;;;;18.20;11.88;;;;;;;2.88;91.72;102007.53;5076560;28;20115;-73
2022/04/11 04:03:21;;;;;;;22.73;10.80;;;;;;;2.88;91.73;102009.22;5078437;28;20481;-76
2022/04/11 04:05:57;;;;;;;24.13;11.95;;;;;;;2.90;92.69;102010.22;5078122;28;20441;-74
2022/04/11 04:08:25;;;;;;;18.15;11.25;;;;;;;2.88;92.24;102015.28;5078186;28;20047;-74
2022/04/11 04:10:53;;;;;;;20.60;12.00;;;;;;;2.85;92.30;102011.63;5078085;28;20127;-74
2022/04/11 04:13:22;;;;;;;17.55;11.55;;;;;;;2.86;92.25;102016.91;5078339;28;20147;-74
2022/04/11 04:15:51;;;;;;;22.00;11.52;;;;;;;2.88;93.30;102011.81;5078375;28;20131;-74
2022/04/11 04:18:22;;;;;;;20.45;12.10;;;;;;;2.85;92.70;102016.78;5078259;28;20059;-75
2022/04/11 04:20:55;;;;;;;22.10;11.55;;;;;;;2.85;93.18;102001.25;5078226;28;20086;-75
2022/04/11 04:23:23;;;;;;;21.52;12.25;;;;;;;2.84;92.76;101997.75;5078471;28;20040;-75
2022/04/11 04:25:52;;;;;;;23.70;12.38;;;;;;;2.84;92.84;102000.34;5078408;28;20076;-75
2022/04/11 04:28:21;;;;;;;20.77;11.95;;;;;;;2.84;92.62;101997.75;5078753;28;20048;-74
2022/04/11 04:30:53;;;;;;;18.48;12.48;;;;;;;2.84;92.35;101992.59;5078256;28;20138;-75
2022/04/11 04:33:22;;;;;;;22.42;12.27;;;;;;;2.82;92.95;101986.41;5077587;28;20106;-75
2022/04/11 04:35:52;;;;;;;21.20;11.90;;;;;;;2.82;92.77;101991.59;5077209;28;20087;-73
2022/04/11 04:38:22;;;;;;;21.85;12.82;;;;;;;2.79;92.51;101986.22;5077552;28;20071;-74
2022/04/11 04:40:53;;;;;;;21.00;12.32;;;;;;;2.77;92.75;101982.63;5077693;28;20060;-75
2022/04/11 04:43:22;;;;;;;22.20;11.98;;;;;;;2.73;92.38;101983.25;5077533;28;20086;-75
2022/04/11 04:45:53;;;;;;;22.30;11.25;;;;;;;2.72;93.17;101989.22;5077506;28;20438;-75
2022/04/11 04:48:24;;;;;;;20.65;11.88;;;;;;;2.66;92.76;101981.06;5077580;28;20199;-72
2022/04/11 04:50:52;;;;;;;26.25;14.05;;;;;;;2.66;92.58;101982.75;5076782;28;20097;-72
2022/04/11 04:53:22;;;;;;;22.15;12.20;;;;;;;2.65;93.35;101984.47;5076458;28;20044;-72
2022/04/11 04:55:55;;;;;;;22.27;12.38;;;;;;;2.61;92.94;101991.13;5076542;28;20094;-73
2022/04/11 04:58:23;;;;;;;27.10;12.30;;;;;;;2.60;93.57;101988.44;5077005;28;20052;-72
2022/04/11 05:00:52;;;;;;;20.27;12.95;;;;;;;2.58;93.57;101992.63;5076568;28;20090;-73
2022/04/11 05:03:21;;;;;;;22.27;13.73;;;;;;;2.58;93.88;101987.44;5076897;28;20050;-74
2022/04/11 05:05:52;;;;;;;22.83;12.85;;;;;;;2.56;93.72;101978.69;5076994;28;20090;-75
2022/04/11 05:08:22;;;;;;;24.88;12.80;;;;;;;2.56;94.16;101987.34;5076926;28;20052;-73
2022/04/11 05:10:53;;;;;;;26.10;13.77;;;;;;;2.55;94.01;101985.56;5076579;28;20045;-73
2022/04/11 05:13:22;;;;;;;24.63;13.23;;;;;;;2.58;94.26;101974.50;5077051;28;20103;-74
2022/04/11 05:15:54;;;;;;;20.05;12.65;;;;;;;2.59;94.56;101986.66;5076899;28;20056;-75
2022/04/11 05:18:24;;;;;;;23.50;14.02;;;;;;;2.59;93.88;101978.88;5077430;28;20076;-73
2022/04/11 05:20:52;;;;;;;20.67;12.57;;;;;;;2.59;93.92;101987.56;5076624;28;20072;-75
2022/04/11 05:23:27;;;;;;;23.33;13.65;;;;;;;2.65;94.43;101991.31;5077089;28;20404;-75
2022/04/11 05:25:56;;;;;;;25.90;14.77;;;;;;;2.65;94.55;101996.50;5076747;28;20044;-74
2022/04/11 05:28:25;;;;;;;23.80;13.32;;;;;;;2.71;94.11;101995.19;5076971;28;20127;-74
2022/04/11 05:30:53;;;;;;;21.90;12.85;;;;;;;2.75;94.01;101989.41;5076742;28;20049;-74
2022/04/11 05:33:21;;;;;;;24.48;14.32;;;;;;;2.81;94.06;101994.09;5076248;28;20048;-74
2022/04/11 05:35:50;;;;;;;25.30;15.82;;;;;;;2.89;93.51;101993.78;5076989;28;20048;-75
2022/04/11 05:38:22;;;;;;;22.58;12.70;;;;;;;3.03;93.52;101986.84;5077488;28;20049;-75
2022/04/11 05:40:52;;;;;;;29.50;15.20;;;;;;;3.16;92.94;101986.78;5077017;28;20080;-74
2022/04/11 05:43:20;;;;;;;21.42;13.52;;;;;;;3.30;92.87;101987.59;5077135;28;20123;-73
2022/04/11 05:45:55;;;;;;;28.20;13.68;;;;;;;3.45;91.90;101980.75;5077019;28;20056;-76
2022/04/11 05:48:24;;;;;;;29.63;15.45;;;;;;;3.66;91.19;101991.50;5077249;28;20048;-74
2022/04/11 05:50:52;;;;;;;26.05;14.15;;;;;;;3.81;90.78;101978.56;5076758;28;20044;-75
2022/04/11 05:53:20;;;;;;;24.27;14.10;;;;;;;3.96;89.45;101984.63;5077294;28;20048;-73
2022/04/11 05:55:55;;;;;;;28.90;15.55;;;;;;;4.16;88.07;101981.44;5076733;28;20040;-74
2022/04/11 05:58:25;;;;;;;26.27;13.23;;;;;;;4.31;87.40;101973.63;5077074;28;20075;-74
2022/04/11 06:00:56;;;;;;;26.38;14.75;;;;;;;4.51;85.88;101979.94;5077397;28;20132;-77
2022/04/11 06:03:25;;;;;;;26.45;15.73;;;;;;;4.66;84.30;101978.19;5077245;28;20059;-77
2022/04/11 06:05:53;;;;;;;23.15;14.20;;;;;;;4.80;83.86;101969.47;5077128;28;20048;-74
2022/04/11 06:08:22;;;;;;;26.63;14.65;;;;;;;4.99;82.76;101973.06;5078279;28;20526;-75
2022/04/11 06:10:52;;;;;;;26.27;15.05;;;;;;;5.15;81.53;101981.75;5078543;28;20052;-75
2022/04/11 06:13:20;;;;;;;26.85;14.68;;;;;;;5.30;80.89;101984.25;5078922;28;20133;-75
2022/04/11 06:15:52;;;;;;;27.42;15.90;;;;;;;5.51;80.04;101981.88;5079383;28;20057;-75
2022/04/11 06:18:22;;;;;;;28.02;16.10;;;;;;;5.65;78.68;101980.88;5081073;28;20044;-75
2022/04/11 06:20:54;;;;;;;30.08;16.38;;;;;;;5.81;77.99;101975.63;5082342;28;20052;-75
2022/04/11 06:23:22;;;;;;;24.60;15.63;;;;;;;5.97;76.79;101973.81;5082175;28;20098;-75
2022/04/11 06:25:54;;;;;;;24.08;15.30;;;;;;;6.10;76.30;101981.44;5081299;28;20052;-76
2022/04/11 06:28:22;;;;;;;26.23;14.25;;;;;;;6.19;75.72;101972.34;5080912;28;20055;-73
2022/04/11 06:30:55;;;;;;;27.15;17.17;;;;;;;6.27;74.90;101971.81;5079593;28;20090;-74
2022/04/11 06:33:23;;;;;;;29.55;15.75;;;;;;;6.49;74.85;101977.22;5079177;28;20055;-74
2022/04/11 06:35:57;;;;;;;26.95;16.73;;;;;;;6.52;73.49;101974.78;5078616;28;20083;-73
2022/04/11 06:38:26;;;;;;;30.38;16.45;;;;;;;6.69;74.04;101975.56;5078085;28;20057;-75
2022/04/11 06:40:58;;;;;;;25.85;16.15;;;;;;;6.84;73.29;101971.97;5076086;28;20075;-74
2022/04/11 06:43:26;;;;;;;28.38;16.52;;;;;;;6.65;72.99;101974.53;5076486;28;20127;-76
2022/04/11 06:45:54;;;;;;;25.20;15.75;;;;;;;6.87;72.08;101971.22;5075713;28;20048;-77
2022/04/11 06:48:23;;;;;;;29.80;16.75;;;;;;;7.06;71.57;101965.13;5075416;28;20449;-76
2022/04/11 06:50:52;;;;;;;27.85;16.63;;;;;;;7.44;71.53;101959.88;5075464;28;20097;-76
2022/04/11 06:53:21;;;;;;;28.77;16.80;;;;;;;7.47;69.13;101961.72;5075420;28;20044;-76
2022/04/11 06:55:52;;;;;;;29.48;17.00;;;;;;;7.87;70.00;101965.22;5075027;28;20079;-76
2022/04/11 06:58:28;;;;;;;27.98;17.35;;;;;;;8.20;69.20;101955.25;5075586;28;20052;-75
2022/04/11 07:01:00;;;;;;;27.10;16.42;;;;;;;8.42;67.08;101951.78;5075815;28;20049;-76
2022/04/11 07:03:30;;;;;;;22.88;15.05;;;;;;;8.50;65.52;101952.97;5075820;28;20079;-76
2022/04/11 07:05:58;;;;;;;25.13;15.55;;;;;;;8.66;66.45;101945.72;5074850;28;20052;-74
2022/04/11 07:08:27;;;;;;;25.63;15.68;;;;;;;8.79;64.90;101943.66;5074819;28;20048;-74
2022/04/11 07:10:58;;;;;;;27.40;15.15;;;;;;;8.94;63.33;101937.22;5075058;28;20147;-76
2022/04/11 07:13:28;;;;;;;22.45;14.30;;;;;;;9.09;62.42;101948.25;5074668;28;20059;-74
2022/04/11 07:15:56;;;;;;;23.98;14.68;;;;;;;8.86;61.88;101939.53;5074596;28;20557;-76
2022/04/11 07:18:27;;;;;;;24.13;12.80;;;;;;;9.22;61.40;101941.72;5074999;28;20053;-77
2022/04/11 07:20:56;;;;;;;23.98;14.70;;;;;;;9.53;61.09;101944.56;5075254;28;20056;-78
2022/04/11 07:23:24;;;;;;;24.83;14.20;;;;;;;9.62;59.58;101936.16;5074540;28;20135;-76
2022/04/11 07:25:52;;;;;;;20.92;13.02;;;;;;;9.55;58.29;101940.28;5074762;28;20078;-77
2022/04/11 07:28:21;;;;;;;22.00;13.32;;;;;;;9.61;58.45;101943.13;5074686;28;20052;-78
2022/04/11 07:30:53;;;;;;;24.42;13.15;;;;;;;9.57;58.33;101937.72;5075282;28;20094;-77
2022/04/11 07:33:21;;;;;;;22.98;13.50;;;;;;;9.75;57.93;101933.09;5074128;28;20052;-77
2022/04/11 07:35:54;;;;;;;24.10;13.30;;;;;;;10.17;59.39;101931.03;5072920;28;20040;-76
2022/04/11 07:38:22;;;;;;;22.73;14.23;;;;;;;10.21;57.64;101934.66;5074270;28;20269;-76
2022/04/11 07:40:52;;;;;;;27.63;15.05;;;;;;;10.52;58.29;101926.88;5074594;28;20044;-75
2022/04/11 07:43:23;;;;;;;31.15;16.42;;;;;;;10.42;58.63;101930.06;5074043;28;20098;-76
2022/04/11 07:45:55;;;;;;;25.83;14.57;;;;;;;10.69;57.90;101919.53;5074427;28;20540;-74
2022/04/11 07:48:24;;;;;;;26.08;14.65;;;;;;;10.83;57.08;101915.59;5074486;28;20132;-75
2022/04/11 07:50:52;;;;;;;24.17;14.95;;;;;;;11.02;57.00;101911.75;5074887;28;20579;-75
2022/04/11 07:53:23;;;;;;;25.50;16.10;;;;;;;11.08;57.24;101910.19;5075588;28;20074;-76
2022/04/11 07:55:53;;;;;;;24.38;14.93;;;;;;;11.28;57.31;101908.13;5074806;28;20049;-76
2022/04/11 07:58:23;;;;;;;33.33;15.18;;;;;;;11.30;55.33;101897.66;5073714;28;20062;-74
2022/04/11 08:00:58;;;;;;;25.80;14.63;;;;;;;11.46;55.99;101894.56;5074213;28;20059;-74
2022/04/11 08:03:28;;;;;;;21.88;14.27;;;;;;;11.41;55.99;101901.47;5073613;28;20055;-76
2022/04/11 08:05:55;;;;;;;26.80;13.98;;;;;;;11.84;54.42;101906.09;5073665;28;20098;-75
2022/04/11 08:08:24;;;;;;;19.27;12.18;;;;;;;11.72;52.06;101897.88;5073824;28;20067;-75
2022/04/11 08:10:52;;;;;;;26.50;14.43;;;;;;;11.48;52.93;101895.50;5074465;28;20074;-76
2022/04/11 08:13:23;;;;;;;21.45;12.18;;;;;;;11.84;52.20;101895.56;5074249;28;20480;-77
2022/04/11 08:15:52;;;;;;;23.10;12.00;;;;;;;11.78;52.28;101888.44;5073706;28;20364;-76
2022/04/11 08:18:22;;;;;;;16.98;11.00;;;;;;;11.99;50.99;101885.44;5074202;28;20075;-76
2022/04/11 08:20:53;;;;;;;19.15;11.60;;;;;;;12.17;49.50;101894.63;5073687;28;20468;-79
2022/04/11 08:23:21;;;;;;;17.02;10.88;;;;;;;12.35;49.65;101885.41;5074125;28;20475;-77
2022/04/11 08:25:53;;;;;;;19.80;11.20;;;;;;;12.43;50.42;101890.84;5073594;28;20475;-77
2022/04/11 08:28:22;;;;;;;17.60;11.30;;;;;;;12.52;49.68;101885.75;5074251;28;20048;-76
2022/04/11 08:30:52;;;;;;;20.13;10.70;;;;;;;12.72;49.70;101884.44;5073947;28;20128;-77
2022/04/11 08:33:24;;;;;;;23.15;12.63;;;;;;;12.75;48.95;101881.88;5074061;28;20059;-74
2022/04/11 08:35:53;;;;;;;15.82;9.88;;;;;;;12.70;49.06;101872.09;5073946;28;20056;-74
2022/04/11 08:38:22;;;;;;;15.85;9.27;;;;;;;12.90;48.41;101875.16;5073253;28;20206;-76
2022/04/11 08:40:55;;;;;;;13.68;8.60;;;;;;;12.62;46.52;101882.47;5072965;28;20134;-74
2022/04/11 08:43:23;;;;;;;;;;;;;;;12.70;47.19;101888.78;5073587;28;20526;-74
2022/04/11 08:45:57;;;;;;;12.98;8.90;;;;;;;13.09;47.27;101893.09;5073599;28;19958;-74
2022/04/11 08:48:27;;;;;;;16.52;9.88;;;;;;;13.12;47.50;101893.16;5077248;28;20524;-75
2022/04/11 08:50:57;;;;;;;15.05;9.18;;;;;;;13.08;46.44;101884.31;5076553;28;20100;-73
2022/04/11 08:53:25;;;;;;;15.80;9.20;;;;;;;13.33;47.13;101883.06;5077844;28;20097;-76
2022/04/11 08:55:53;;;;;;;16.77;9.02;;;;;;;13.09;47.37;101877.28;5078558;28;20411;-77
2022/04/11 08:58:22;;;;;;;16.33;8.98;;;;;;;13.18;47.75;101871.34;5077950;28;20048;-77
2022/04/11 09:00:53;;;;;;;17.00;10.52;;;;;;;13.55;47.71;101863.22;5077415;28;20467;-76
2022/04/11 09:03:22;;;;;;;16.05;9.82;;;;;;;13.79;49.08;101862.75;5078500;28;20048;-76
2022/04/11 09:06:09;;;;;;;14.65;9.18;;;;;;;13.66;46.14;101858.13;5078216;28;20087;-76
2022/04/11 09:08:41;;;;;;;14.48;8.80;;;;;;;13.78;46.40;101863.59;5076359;28;20087;-76
2022/04/11 09:11:10;;;;;;;18.42;9.10;;;;;;;14.04;46.80;101864.03;5078147;28;20063;-76
2022/04/11 09:13:53;;;;;;;15.80;10.38;;;;;;;14.13;48.60;101858.88;5078140;28;20049;-76
2022/04/11 09:16:21;;;;;;;18.20;7.93;;;;;;;14.01;45.23;101856.06;5077580;28;20546;-76
2022/04/11 09:18:54;;;;;;;13.50;6.72;;;;;;;13.67;43.48;101852.88;5077317;28;20277;-76
2022/04/11 09:21:26;;;;;;;11.27;6.38;;;;;;;14.02;42.99;101848.16;5076331;28;20048;-73
2022/04/11 09:24:19;;;;;;;16.05;8.85;;;;;;;14.44;45.80;101839.13;5075634;28;20127;-73
2022/04/11 09:26:55;;;;;;;15.93;8.50;;;;;;;13.99;46.27;101834.94;5077451;28;20064;-77
2022/04/11 09:29:24;;;;;;;16.15;8.77;;;;;;;14.18;45.80;101835.22;5078612;28;20048;-75
2022/04/11 09:31:53;;;;;;;11.93;7.60;;;;;;;14.47;45.46;101840.94;5078700;28;20090;-76
2022/04/11 09:34:23;;;;;;;12.15;7.28;;;;;;;14.38;43.59;101844.28;5079161;28;20056;-76
2022/04/11 09:36:55;;;;;;;13.63;5.85;;;;;;;14.25;43.02;101837.06;5079688;28;20090;-76
2022/04/11 09:39:30;;;;;;;13.65;7.47;;;;;;;14.07;43.16;101838.56;5081401;28;20445;-76
2022/04/11 09:42:05;;;;;;;14.05;5.88;;;;;;;13.63;42.45;101848.41;5082716;28;20045;-76
2022/04/11 09:44:36;;;;;;;;;;;;;;;13.99;42.64;101844.59;5083882;28;20052;-76
2022/04/11 09:47:21;;;;;;;11.35;6.47;;;;;;;14.19;43.09;101845.78;5080063;28;19935;-76
2022/04/11 09:49:53;;;;;;;11.55;6.10;;;;;;;14.20;43.00;101837.00;5082351;28;20048;-77
2022/04/11 09:52:29;;;;;;;10.25;5.78;;;;;;;14.39;43.61;101833.75;5081751;28;20076;-76
2022/04/11 09:55:00;;;;;;;10.18;6.07;;;;;;;14.38;43.06;101839.00;5081635;28;20136;-77
2022/04/11 09:57:31;;;;;;;8.38;4.97;;;;;;;14.23;42.00;101830.88;5082370;28;20074;-77
2022/04/11 10:00:04;;;;;;;10.90;5.40;;;;;;;14.28;42.06;101831.84;5080031;28;20107;-77
2022/04/11 10:02:35;;;;;;;9.43;5.97;;;;;;;14.24;43.60;101824.75;5079611;28;20120;-77
2022/04/11 10:05:05;;;;;;;9.20;5.55;;;;;;;14.32;41.81;101825.72;5077074;28;20048;-76
2022/04/11 10:07:34;;;;;;;13.40;5.90;;;;;;;14.19;41.51;101829.06;5076920;28;20094;-76
2022/04/11 10:10:08;;;;;;;12.05;5.63;;;;;;;14.26;41.79;101834.44;5075836;28;20048;-74
2022/04/11 10:12:39;;;;;;;12.98;7.10;;;;;;;14.15;41.02;101835.16;5075577;28;20226;-74
2022/04/11 10:15:12;;;;;;;11.90;6.70;;;;;;;13.86;41.52;101832.97;5075597;28;20066;-73
2022/04/11 10:17:40;;;;;;;12.73;6.80;;;;;;;14.18;41.41;101829.94;5075318;28;20049;-74
2022/04/11 10:20:12;;;;;;;12.18;6.30;;;;;;;14.21;41.83;101824.69;5075058;28;20055;-73
2022/04/11 10:23:08;;;;;;;12.13;6.28;;;;;;;14.56;41.09;101817.28;5075149;28;20040;-73
2022/04/11 10:25:44;;;;;;;11.40;6.22;;;;;;;14.52;40.65;101813.72;5074468;28;20086;-73
2022/04/11 10:28:22;;;;;;;9.15;6.07;;;;;;;14.49;40.18;101810.16;5074975;28;20052;-74
2022/04/11 10:31:12;;;;;;;11.52;6.65;;;;;;;14.63;41.15;101803.25;5074964;28;20072;-74
2022/04/11 10:33:46;;;;;;;13.10;7.43;;;;;;;14.70;40.91;101806.00;5068965;28;20044;-73
2022/04/11 10:36:29;;;;;;;11.25;6.20;;;;;;;14.28;39.14;101805.44;5074339;28;20094;-74
2022/04/11 10:39:26;;;;;;;11.13;6.95;;;;;;;14.28;40.04;101801.06;5074938;28;20052;-74
2022/04/11 10:42:09;;;;;;;11.25;6.95;;;;;;;14.32;40.67;101804.63;5074566;28;20433;-74
2022/04/11 10:44:39;;;;;;;12.23;7.30;;;;;;;14.54;41.29;101798.78;5074514;28;20337;-77
2022/04/11 10:47:31;;;;;;;11.57;7.25;;;;;;;14.44;41.23;101798.66;5075764;28;20045;-76
2022/04/11 10:50:36;;;;;;;10.75;6.50;;;;;;;14.54;40.72;101787.34;5075604;28;20092;-77
2022/04/11 10:53:27;;;;;;;14.95;7.90;;;;;;;14.32;39.59;101773.84;5074789;28;20123;-75
2022/04/11 10:56:04;;;;;;;12.43;7.57;;;;;;;14.52;40.06;101774.13;5074573;28;20120;-73
2022/04/11 10:58:44;;;;;;;12.18;6.40;;;;;;;14.62;40.31;101770.69;5074296;28;20094;-73
2022/04/11 11:01:13;;;;;;;11.25;6.32;;;;;;;14.34;39.34;101773.88;5074473;28;20040;-75
2022/04/11 11:03:57;;;;;;;8.98;5.80;;;;;;;14.70;40.30;101771.66;5074140;28;20047;-74
2022/04/11 11:06:25;;;;;;;11.38;6.10;;;;;;;14.55;39.78;101753.03;5074007;28;20090;-74
2022/04/11 11:08:53;;;;;;;10.73;6.47;;;;;;;14.68;38.90;101757.56;5074120;28;20472;-74
2022/04/11 11:11:27;;;;;;;12.18;7.07;;;;;;;14.55;39.33;101747.75;5074489;28;20381;-74
2022/04/11 11:13:58;;;;;;;13.75;6.75;;;;;;;14.81;40.16;101734.81;5074340;28;20055;-74
2022/04/11 11:16:59;;;;;;;13.40;6.78;;;;;;;14.88;39.19;101730.47;5073848;28;20060;-74
2022/04/11 11:19:27;;;;;;;15.10;7.63;;;;;;;14.70;38.25;101724.13;5074440;28;20044;-73
2022/04/11 11:22:07;;;;;;;10.90;6.18;;;;;;;14.68;38.50;101723.25;5074037;28;20457;-73
2022/04/11 11:24:35;;;;;;;11.60;6.90;;;;;;;14.97;39.48;101710.31;5073915;28;20123;-73
2022/04/11 11:27:08;;;;;;;10.52;6.50;;;;;;;15.15;39.07;101708.72;5073934;28;20052;-73
2022/04/11 11:29:44;;;;;;;13.40;6.60;;;;;;;15.08;39.09;101709.53;5073934;28;20048;-73
2022/04/11 11:32:14;;;;;;;11.48;7.32;;;;;;;14.88;39.95;101698.78;5074443;28;20098;-73
2022/04/11 11:34:43;;;;;;;12.30;7.65;;;;;;;14.79;40.22;101699.59;5074236;28;20072;-73
2022/04/11 11:37:13;;;;;;;12.93;7.88;;;;;;;15.00;40.83;101690.97;5074442;28;20051;-74